sensor_id;sensor_type;location;lat;lon;timestamp;P1;durP1;ratioP1;P2;durP2;ratioP2
77872;SDS011;67068;52.116;4.440;2023-09-18T00:01:17;10.27;;;5.17;;
77872;SDS011;67068;52.116;4.440;2023-09-18T00:03:44;11.68;;;5.85;;
77872;SDS011;67068;52.116;4.440;2023-09-18T00:06:10;11.10;;;5.50;;
77872;SDS011;67068;52.116;4.440;2023-09-18T00:08:36;11.20;;;5.03;;
77872;SDS011;67068;52.116;4.440;2023-09-18T00:11:03;10.07;;;5.18;;
77872;SDS011;67068;52.116;4.440;2023-09-18T00:13:28;10.88;;;5.32;;
77872;SDS011;67068;52.116;4.440;2023-09-18T00:15:54;11.40;;;6.00;;
77872;SDS011;67068;52.116;4.440;2023-09-18T00:18:20;11.55;;;5.38;;
77872;SDS011;67068;52.116;4.440;2023-09-18T00:20:46;10.48;;;5.25;;
77872;SDS011;67068;52.116;4.440;2023-09-18T00:23:13;10.52;;;5.43;;
77872;SDS011;67068;52.116;4.440;2023-09-18T00:25:38;11.80;;;5.17;;
77872;SDS011;67068;52.116;4.440;2023-09-18T00:28:06;11.68;;;5.63;;
77872;SDS011;67068;52.116;4.440;2023-09-18T00:30:31;13.10;;;5.73;;
77872;SDS011;67068;52.116;4.440;2023-09-18T00:32:59;11.10;;;5.27;;
77872;SDS011;67068;52.116;4.440;2023-09-18T00:35:24;11.80;;;5.10;;
77872;SDS011;67068;52.116;4.440;2023-09-18T00:37:50;11.98;;;5.75;;
77872;SDS011;67068;52.116;4.440;2023-09-18T00:40:15;10.80;;;5.30;;
77872;SDS011;67068;52.116;4.440;2023-09-18T00:42:41;10.55;;;5.28;;
77872;SDS011;67068;52.116;4.440;2023-09-18T00:45:06;11.13;;;5.13;;
77872;SDS011;67068;52.116;4.440;2023-09-18T00:47:31;11.32;;;5.45;;
77872;SDS011;67068;52.116;4.440;2023-09-18T00:49:57;11.80;;;5.67;;
77872;SDS011;67068;52.116;4.440;2023-09-18T00:52:22;12.02;;;5.78;;
77872;SDS011;67068;52.116;4.440;2023-09-18T00:54:48;10.55;;;5.32;;
77872;SDS011;67068;52.116;4.440;2023-09-18T00:57:14;11.13;;;5.28;;
77872;SDS011;67068;52.116;4.440;2023-09-18T00:59:40;11.77;;;5.40;;
77872;SDS011;67068;52.116;4.440;2023-09-18T01:02:05;11.13;;;5.35;;
77872;SDS011;67068;52.116;4.440;2023-09-18T01:04:31;11.65;;;5.18;;
77872;SDS011;67068;52.116;4.440;2023-09-18T01:06:58;11.10;;;4.85;;
77872;SDS011;67068;52.116;4.440;2023-09-18T01:09:24;10.20;;;4.97;;
77872;SDS011;67068;52.116;4.440;2023-09-18T01:16:58;10.80;;;5.23;;
77872;SDS011;67068;52.116;4.440;2023-09-18T01:22:11;11.38;;;5.22;;
77872;SDS011;67068;52.116;4.440;2023-09-18T01:24:36;9.75;;;4.80;;
77872;SDS011;67068;52.116;4.440;2023-09-18T01:27:02;11.35;;;5.40;;
77872;SDS011;67068;52.116;4.440;2023-09-18T01:29:29;10.38;;;4.75;;
77872;SDS011;67068;52.116;4.440;2023-09-18T01:31:54;10.90;;;5.17;;
77872;SDS011;67068;52.116;4.440;2023-09-18T01:34:20;10.30;;;5.10;;
77872;SDS011;67068;52.116;4.440;2023-09-18T01:36:46;10.93;;;5.80;;
77872;SDS011;67068;52.116;4.440;2023-09-18T01:39:12;12.10;;;5.28;;
77872;SDS011;67068;52.116;4.440;2023-09-18T01:41:37;10.18;;;4.90;;
77872;SDS011;67068;52.116;4.440;2023-09-18T01:44:03;9.70;;;4.53;;
77872;SDS011;67068;52.116;4.440;2023-09-18T01:46:29;10.40;;;4.57;;
77872;SDS011;67068;52.116;4.440;2023-09-18T01:48:57;9.38;;;4.40;;
77872;SDS011;67068;52.116;4.440;2023-09-18T01:51:22;9.75;;;4.70;;
77872;SDS011;67068;52.116;4.440;2023-09-18T01:53:47;10.50;;;4.93;;
77872;SDS011;67068;52.116;4.440;2023-09-18T01:56:13;10.70;;;4.63;;
77872;SDS011;67068;52.116;4.440;2023-09-18T01:58:38;10.70;;;4.80;;
77872;SDS011;67068;52.116;4.440;2023-09-18T02:01:03;10.97;;;5.13;;
77872;SDS011;67068;52.116;4.440;2023-09-18T02:03:29;11.13;;;4.45;;
77872;SDS011;67068;52.116;4.440;2023-09-18T02:05:54;10.07;;;5.30;;
77872;SDS011;67068;52.116;4.440;2023-09-18T02:08:20;10.77;;;5.13;;
77872;SDS011;67068;52.116;4.440;2023-09-18T02:10:45;11.07;;;4.90;;
77872;SDS011;67068;52.116;4.440;2023-09-18T02:13:10;9.90;;;4.40;;
77872;SDS011;67068;52.116;4.440;2023-09-18T02:15:36;9.90;;;4.93;;
77872;SDS011;67068;52.116;4.440;2023-09-18T02:18:02;10.40;;;5.00;;
77872;SDS011;67068;52.116;4.440;2023-09-18T02:20:27;11.88;;;4.93;;
77872;SDS011;67068;52.116;4.440;2023-09-18T02:22:52;9.83;;;4.80;;
77872;SDS011;67068;52.116;4.440;2023-09-18T02:25:17;10.93;;;4.80;;
77872;SDS011;67068;52.116;4.440;2023-09-18T02:27:43;9.77;;;4.37;;
77872;SDS011;67068;52.116;4.440;2023-09-18T02:30:11;9.82;;;4.90;;
77872;SDS011;67068;52.116;4.440;2023-09-18T02:32:36;9.73;;;4.45;;
77872;SDS011;67068;52.116;4.440;2023-09-18T02:35:01;9.17;;;4.20;;
77872;SDS011;67068;52.116;4.440;2023-09-18T02:37:27;10.43;;;4.57;;
77872;SDS011;67068;52.116;4.440;2023-09-18T02:39:54;9.60;;;4.88;;
77872;SDS011;67068;52.116;4.440;2023-09-18T02:42:19;9.87;;;4.63;;
77872;SDS011;67068;52.116;4.440;2023-09-18T02:44:44;9.77;;;4.43;;
77872;SDS011;67068;52.116;4.440;2023-09-18T02:47:09;9.73;;;4.37;;
77872;SDS011;67068;52.116;4.440;2023-09-18T02:49:34;8.90;;;4.03;;
77872;SDS011;67068;52.116;4.440;2023-09-18T02:52:00;9.37;;;4.10;;
77872;SDS011;67068;52.116;4.440;2023-09-18T02:54:25;9.97;;;4.50;;
77872;SDS011;67068;52.116;4.440;2023-09-18T02:56:50;9.10;;;4.30;;
77872;SDS011;67068;52.116;4.440;2023-09-18T02:59:15;9.07;;;4.43;;
77872;SDS011;67068;52.116;4.440;2023-09-18T03:01:40;8.87;;;4.30;;
77872;SDS011;67068;52.116;4.440;2023-09-18T03:04:06;10.37;;;4.70;;
77872;SDS011;67068;52.116;4.440;2023-09-18T03:06:32;9.18;;;4.30;;
77872;SDS011;67068;52.116;4.440;2023-09-18T03:08:57;8.97;;;4.23;;
77872;SDS011;67068;52.116;4.440;2023-09-18T03:11:22;8.77;;;3.92;;
77872;SDS011;67068;52.116;4.440;2023-09-18T03:13:52;11.60;;;4.50;;
77872;SDS011;67068;52.116;4.440;2023-09-18T03:16:17;9.67;;;4.37;;
77872;SDS011;67068;52.116;4.440;2023-09-18T03:18:42;9.25;;;4.30;;
77872;SDS011;67068;52.116;4.440;2023-09-18T03:21:07;8.90;;;4.17;;
77872;SDS011;67068;52.116;4.440;2023-09-18T03:23:33;8.73;;;4.20;;
77872;SDS011;67068;52.116;4.440;2023-09-18T03:25:58;9.10;;;4.30;;
77872;SDS011;67068;52.116;4.440;2023-09-18T03:28:24;9.43;;;3.88;;
77872;SDS011;67068;52.116;4.440;2023-09-18T03:30:49;10.20;;;4.17;;
77872;SDS011;67068;52.116;4.440;2023-09-18T03:33:15;8.77;;;3.87;;
77872;SDS011;67068;52.116;4.440;2023-09-18T03:35:49;9.50;;;4.73;;
77872;SDS011;67068;52.116;4.440;2023-09-18T03:38:15;9.82;;;4.50;;
77872;SDS011;67068;52.116;4.440;2023-09-18T03:40:40;10.30;;;4.20;;
77872;SDS011;67068;52.116;4.440;2023-09-18T03:43:06;8.57;;;3.88;;
77872;SDS011;67068;52.116;4.440;2023-09-18T03:45:32;9.43;;;4.32;;
77872;SDS011;67068;52.116;4.440;2023-09-18T03:47:57;9.77;;;4.50;;
77872;SDS011;67068;52.116;4.440;2023-09-18T03:50:22;10.13;;;4.30;;
77872;SDS011;67068;52.116;4.440;2023-09-18T03:52:47;9.63;;;4.23;;
77872;SDS011;67068;52.116;4.440;2023-09-18T03:55:13;10.10;;;4.73;;
77872;SDS011;67068;52.116;4.440;2023-09-18T03:57:38;8.77;;;4.15;;
77872;SDS011;67068;52.116;4.440;2023-09-18T04:00:04;9.43;;;4.43;;
77872;SDS011;67068;52.116;4.440;2023-09-18T04:02:29;9.57;;;4.43;;
77872;SDS011;67068;52.116;4.440;2023-09-18T04:04:55;9.57;;;3.93;;
77872;SDS011;67068;52.116;4.440;2023-09-18T04:07:20;9.40;;;4.00;;
77872;SDS011;67068;52.116;4.440;2023-09-18T04:09:46;9.25;;;4.05;;
77872;SDS011;67068;52.116;4.440;2023-09-18T04:12:11;9.27;;;4.25;;
77872;SDS011;67068;52.116;4.440;2023-09-18T04:14:36;9.50;;;4.20;;
77872;SDS011;67068;52.116;4.440;2023-09-18T04:17:02;8.27;;;3.57;;
77872;SDS011;67068;52.116;4.440;2023-09-18T04:19:27;8.70;;;4.03;;
77872;SDS011;67068;52.116;4.440;2023-09-18T04:21:52;8.83;;;4.00;;
77872;SDS011;67068;52.116;4.440;2023-09-18T04:24:18;9.20;;;3.93;;
77872;SDS011;67068;52.116;4.440;2023-09-18T04:26:43;9.10;;;3.93;;
77872;SDS011;67068;52.116;4.440;2023-09-18T04:29:08;8.63;;;3.67;;
77872;SDS011;67068;52.116;4.440;2023-09-18T04:31:33;10.03;;;4.40;;
77872;SDS011;67068;52.116;4.440;2023-09-18T04:33:58;10.00;;;4.33;;
77872;SDS011;67068;52.116;4.440;2023-09-18T04:36:24;8.43;;;3.53;;
77872;SDS011;67068;52.116;4.440;2023-09-18T04:38:50;8.90;;;4.00;;
77872;SDS011;67068;52.116;4.440;2023-09-18T04:41:15;9.80;;;4.20;;
77872;SDS011;67068;52.116;4.440;2023-09-18T04:43:40;8.93;;;3.97;;
77872;SDS011;67068;52.116;4.440;2023-09-18T04:46:07;7.90;;;3.65;;
77872;SDS011;67068;52.116;4.440;2023-09-18T04:48:32;7.90;;;3.27;;
77872;SDS011;67068;52.116;4.440;2023-09-18T04:50:58;8.87;;;3.87;;
77872;SDS011;67068;52.116;4.440;2023-09-18T04:53:23;7.93;;;3.47;;
77872;SDS011;67068;52.116;4.440;2023-09-18T04:55:49;8.17;;;3.57;;
77872;SDS011;67068;52.116;4.440;2023-09-18T04:58:15;8.38;;;3.70;;
77872;SDS011;67068;52.116;4.440;2023-09-18T05:00:40;9.07;;;3.83;;
77872;SDS011;67068;52.116;4.440;2023-09-18T05:03:06;8.45;;;3.50;;
77872;SDS011;67068;52.116;4.440;2023-09-18T05:05:33;8.57;;;3.63;;
77872;SDS011;67068;52.116;4.440;2023-09-18T05:07:58;8.30;;;3.47;;
77872;SDS011;67068;52.116;4.440;2023-09-18T05:10:23;9.23;;;3.90;;
77872;SDS011;67068;52.116;4.440;2023-09-18T05:12:48;8.83;;;3.53;;
77872;SDS011;67068;52.116;4.440;2023-09-18T05:15:15;8.40;;;3.30;;
77872;SDS011;67068;52.116;4.440;2023-09-18T05:17:45;9.63;;;3.33;;
77872;SDS011;67068;52.116;4.440;2023-09-18T05:20:11;9.25;;;3.90;;
77872;SDS011;67068;52.116;4.440;2023-09-18T05:22:39;8.23;;;3.38;;
77872;SDS011;67068;52.116;4.440;2023-09-18T05:25:05;8.60;;;3.45;;
77872;SDS011;67068;52.116;4.440;2023-09-18T05:27:31;7.85;;;3.47;;
77872;SDS011;67068;52.116;4.440;2023-09-18T05:29:57;7.93;;;3.47;;
77872;SDS011;67068;52.116;4.440;2023-09-18T05:32:22;8.53;;;3.50;;
77872;SDS011;67068;52.116;4.440;2023-09-18T05:34:47;8.47;;;3.37;;
77872;SDS011;67068;52.116;4.440;2023-09-18T05:37:12;8.57;;;3.70;;
77872;SDS011;67068;52.116;4.440;2023-09-18T05:39:38;7.47;;;3.00;;
77872;SDS011;67068;52.116;4.440;2023-09-18T05:42:03;10.00;;;3.40;;
77872;SDS011;67068;52.116;4.440;2023-09-18T05:44:28;8.52;;;3.28;;
77872;SDS011;67068;52.116;4.440;2023-09-18T05:46:54;9.43;;;3.50;;
77872;SDS011;67068;52.116;4.440;2023-09-18T05:49:19;8.43;;;3.37;;
77872;SDS011;67068;52.116;4.440;2023-09-18T05:51:44;9.63;;;3.57;;
77872;SDS011;67068;52.116;4.440;2023-09-18T05:54:09;8.50;;;3.37;;
77872;SDS011;67068;52.116;4.440;2023-09-18T05:56:35;7.67;;;2.87;;
77872;SDS011;67068;52.116;4.440;2023-09-18T05:59:00;8.63;;;3.40;;
77872;SDS011;67068;52.116;4.440;2023-09-18T06:01:25;7.43;;;3.10;;
77872;SDS011;67068;52.116;4.440;2023-09-18T06:03:51;7.85;;;3.33;;
77872;SDS011;67068;52.116;4.440;2023-09-18T06:06:16;8.10;;;3.33;;
77872;SDS011;67068;52.116;4.440;2023-09-18T06:08:41;7.53;;;2.80;;
77872;SDS011;67068;52.116;4.440;2023-09-18T06:11:06;7.97;;;3.20;;
77872;SDS011;67068;52.116;4.440;2023-09-18T06:13:31;7.37;;;3.20;;
77872;SDS011;67068;52.116;4.440;2023-09-18T06:15:59;8.25;;;3.28;;
77872;SDS011;67068;52.116;4.440;2023-09-18T06:18:24;7.57;;;3.10;;
77872;SDS011;67068;52.116;4.440;2023-09-18T06:20:49;8.37;;;3.00;;
77872;SDS011;67068;52.116;4.440;2023-09-18T06:23:15;6.97;;;2.75;;
77872;SDS011;67068;52.116;4.440;2023-09-18T06:25:40;7.53;;;3.00;;
77872;SDS011;67068;52.116;4.440;2023-09-18T06:28:06;7.63;;;3.00;;
77872;SDS011;67068;52.116;4.440;2023-09-18T06:30:31;7.30;;;2.63;;
77872;SDS011;67068;52.116;4.440;2023-09-18T06:32:58;8.10;;;3.10;;
77872;SDS011;67068;52.116;4.440;2023-09-18T06:35:23;9.07;;;2.80;;
77872;SDS011;67068;52.116;4.440;2023-09-18T06:37:48;7.60;;;3.13;;
77872;SDS011;67068;52.116;4.440;2023-09-18T06:40:14;7.57;;;2.80;;
77872;SDS011;67068;52.116;4.440;2023-09-18T06:42:39;9.00;;;3.30;;
77872;SDS011;67068;52.116;4.440;2023-09-18T06:45:04;7.17;;;2.80;;
77872;SDS011;67068;52.116;4.440;2023-09-18T06:47:32;7.40;;;3.00;;
77872;SDS011;67068;52.116;4.440;2023-09-18T06:49:57;7.25;;;2.80;;
77872;SDS011;67068;52.116;4.440;2023-09-18T06:52:22;7.18;;;2.78;;
77872;SDS011;67068;52.116;4.440;2023-09-18T06:54:48;7.88;;;2.95;;
77872;SDS011;67068;52.116;4.440;2023-09-18T06:57:13;7.77;;;2.83;;
77872;SDS011;67068;52.116;4.440;2023-09-18T06:59:38;8.13;;;2.73;;
77872;SDS011;67068;52.116;4.440;2023-09-18T07:02:04;8.13;;;2.73;;
77872;SDS011;67068;52.116;4.440;2023-09-18T07:04:29;7.30;;;3.00;;
77872;SDS011;67068;52.116;4.440;2023-09-18T07:06:54;8.97;;;2.93;;
77872;SDS011;67068;52.116;4.440;2023-09-18T07:09:19;7.83;;;2.67;;
77872;SDS011;67068;52.116;4.440;2023-09-18T07:11:48;9.20;;;3.03;;
77872;SDS011;67068;52.116;4.440;2023-09-18T07:14:13;8.13;;;2.80;;
77872;SDS011;67068;52.116;4.440;2023-09-18T07:16:38;7.90;;;2.63;;
77872;SDS011;67068;52.116;4.440;2023-09-18T07:19:03;7.33;;;2.77;;
77872;SDS011;67068;52.116;4.440;2023-09-18T07:21:29;8.70;;;2.83;;
77872;SDS011;67068;52.116;4.440;2023-09-18T07:23:55;7.57;;;2.90;;
77872;SDS011;67068;52.116;4.440;2023-09-18T07:26:20;7.93;;;2.80;;
77872;SDS011;67068;52.116;4.440;2023-09-18T07:28:45;7.50;;;2.80;;
77872;SDS011;67068;52.116;4.440;2023-09-18T07:31:11;7.43;;;2.67;;
77872;SDS011;67068;52.116;4.440;2023-09-18T07:33:37;7.07;;;2.50;;
77872;SDS011;67068;52.116;4.440;2023-09-18T07:36:02;7.00;;;2.60;;
77872;SDS011;67068;52.116;4.440;2023-09-18T07:38:28;7.38;;;2.90;;
77872;SDS011;67068;52.116;4.440;2023-09-18T07:40:54;6.90;;;2.47;;
77872;SDS011;67068;52.116;4.440;2023-09-18T07:43:19;7.72;;;2.88;;
77872;SDS011;67068;52.116;4.440;2023-09-18T07:45:45;6.70;;;2.63;;
77872;SDS011;67068;52.116;4.440;2023-09-18T07:48:10;7.67;;;2.40;;
77872;SDS011;67068;52.116;4.440;2023-09-18T07:50:35;7.33;;;2.50;;
77872;SDS011;67068;52.116;4.440;2023-09-18T07:53:01;6.70;;;2.47;;
77872;SDS011;67068;52.116;4.440;2023-09-18T07:55:26;6.85;;;2.60;;
77872;SDS011;67068;52.116;4.440;2023-09-18T07:57:52;7.38;;;2.92;;
77872;SDS011;67068;52.116;4.440;2023-09-18T08:00:17;6.53;;;2.30;;
77872;SDS011;67068;52.116;4.440;2023-09-18T08:02:43;6.53;;;2.60;;
77872;SDS011;67068;52.116;4.440;2023-09-18T08:05:09;7.32;;;2.85;;
77872;SDS011;67068;52.116;4.440;2023-09-18T08:07:35;6.85;;;2.28;;
77872;SDS011;67068;52.116;4.440;2023-09-18T08:10:01;7.40;;;2.50;;
77872;SDS011;67068;52.116;4.440;2023-09-18T08:12:27;6.07;;;2.47;;
77872;SDS011;67068;52.116;4.440;2023-09-18T08:14:52;7.00;;;2.43;;
77872;SDS011;67068;52.116;4.440;2023-09-18T08:17:17;5.95;;;2.20;;
77872;SDS011;67068;52.116;4.440;2023-09-18T08:19:43;5.70;;;2.10;;
77872;SDS011;67068;52.116;4.440;2023-09-18T08:22:09;7.18;;;2.47;;
77872;SDS011;67068;52.116;4.440;2023-09-18T08:24:36;7.75;;;2.60;;
77872;SDS011;67068;52.116;4.440;2023-09-18T08:27:02;6.33;;;2.50;;
77872;SDS011;67068;52.116;4.440;2023-09-18T08:29:28;7.18;;;2.67;;
77872;SDS011;67068;52.116;4.440;2023-09-18T08:31:53;6.13;;;2.30;;
77872;SDS011;67068;52.116;4.440;2023-09-18T08:34:19;6.47;;;2.30;;
77872;SDS011;67068;52.116;4.440;2023-09-18T08:36:44;6.18;;;2.10;;
77872;SDS011;67068;52.116;4.440;2023-09-18T08:39:09;6.57;;;2.07;;
77872;SDS011;67068;52.116;4.440;2023-09-18T08:41:37;5.72;;;1.85;;
77872;SDS011;67068;52.116;4.440;2023-09-18T08:48:53;6.47;;;2.15;;
77872;SDS011;67068;52.116;4.440;2023-09-18T08:51:19;7.65;;;2.40;;
77872;SDS011;67068;52.116;4.440;2023-09-18T08:53:44;5.85;;;2.03;;
77872;SDS011;67068;52.116;4.440;2023-09-18T08:56:10;6.32;;;2.00;;
77872;SDS011;67068;52.116;4.440;2023-09-18T08:58:40;7.20;;;2.15;;
77872;SDS011;67068;52.116;4.440;2023-09-18T09:01:08;5.22;;;1.92;;
77872;SDS011;67068;52.116;4.440;2023-09-18T09:03:35;5.50;;;2.10;;
77872;SDS011;67068;52.116;4.440;2023-09-18T09:06:00;6.95;;;2.42;;
77872;SDS011;67068;52.116;4.440;2023-09-18T09:08:27;6.00;;;1.83;;
77872;SDS011;67068;52.116;4.440;2023-09-18T09:10:52;5.20;;;1.85;;
77872;SDS011;67068;52.116;4.440;2023-09-18T09:13:18;6.05;;;2.10;;
77872;SDS011;67068;52.116;4.440;2023-09-18T09:15:44;6.77;;;1.97;;
77872;SDS011;67068;52.116;4.440;2023-09-18T09:18:14;4.85;;;1.85;;
77872;SDS011;67068;52.116;4.440;2023-09-18T09:23:23;6.72;;;2.15;;
77872;SDS011;67068;52.116;4.440;2023-09-18T09:25:48;5.25;;;2.03;;
77872;SDS011;67068;52.116;4.440;2023-09-18T09:28:13;5.27;;;1.90;;
77872;SDS011;67068;52.116;4.440;2023-09-18T09:30:39;5.68;;;2.00;;
77872;SDS011;67068;52.116;4.440;2023-09-18T09:33:05;5.63;;;2.00;;
77872;SDS011;67068;52.116;4.440;2023-09-18T09:35:32;7.07;;;2.20;;
77872;SDS011;67068;52.116;4.440;2023-09-18T09:38:07;6.78;;;2.13;;
77872;SDS011;67068;52.116;4.440;2023-09-18T09:40:32;4.82;;;1.67;;
77872;SDS011;67068;52.116;4.440;2023-09-18T09:42:58;5.70;;;1.90;;
77872;SDS011;67068;52.116;4.440;2023-09-18T09:45:32;4.75;;;1.80;;
77872;SDS011;67068;52.116;4.440;2023-09-18T09:48:02;6.15;;;1.90;;
77872;SDS011;67068;52.116;4.440;2023-09-18T09:50:29;6.25;;;2.15;;
77872;SDS011;67068;52.116;4.440;2023-09-18T09:52:54;5.97;;;1.95;;
77872;SDS011;67068;52.116;4.440;2023-09-18T09:55:21;6.03;;;2.00;;
77872;SDS011;67068;52.116;4.440;2023-09-18T09:57:47;4.97;;;1.77;;
77872;SDS011;67068;52.116;4.440;2023-09-18T10:00:13;5.50;;;2.00;;
77872;SDS011;67068;52.116;4.440;2023-09-18T10:02:53;5.68;;;2.10;;
77872;SDS011;67068;52.116;4.440;2023-09-18T10:05:21;6.47;;;2.28;;
77872;SDS011;67068;52.116;4.440;2023-09-18T10:07:47;6.00;;;2.20;;
77872;SDS011;67068;52.116;4.440;2023-09-18T10:10:13;5.45;;;1.98;;
77872;SDS011;67068;52.116;4.440;2023-09-18T10:12:38;6.35;;;1.95;;
77872;SDS011;67068;52.116;4.440;2023-09-18T10:15:04;5.30;;;1.98;;
77872;SDS011;67068;52.116;4.440;2023-09-18T10:17:30;6.03;;;2.00;;
77872;SDS011;67068;52.116;4.440;2023-09-18T10:22:31;4.53;;;1.65;;
77872;SDS011;67068;52.116;4.440;2023-09-18T10:25:12;6.05;;;2.13;;
77872;SDS011;67068;52.116;4.440;2023-09-18T10:27:42;6.15;;;2.00;;
77872;SDS011;67068;52.116;4.440;2023-09-18T10:30:09;8.45;;;2.22;;
77872;SDS011;67068;52.116;4.440;2023-09-18T10:32:36;5.93;;;2.00;;
77872;SDS011;67068;52.116;4.440;2023-09-18T10:35:03;5.32;;;1.77;;
77872;SDS011;67068;52.116;4.440;2023-09-18T10:37:29;5.65;;;2.10;;
77872;SDS011;67068;52.116;4.440;2023-09-18T10:39:55;6.28;;;2.10;;
77872;SDS011;67068;52.116;4.440;2023-09-18T10:42:21;5.80;;;2.00;;
77872;SDS011;67068;52.116;4.440;2023-09-18T10:44:47;6.22;;;2.22;;
77872;SDS011;67068;52.116;4.440;2023-09-18T10:47:13;6.53;;;1.90;;
77872;SDS011;67068;52.116;4.440;2023-09-18T10:49:39;4.53;;;1.65;;
77872;SDS011;67068;52.116;4.440;2023-09-18T10:52:04;6.27;;;2.10;;
77872;SDS011;67068;52.116;4.440;2023-09-18T10:54:30;5.57;;;2.03;;
77872;SDS011;67068;52.116;4.440;2023-09-18T10:56:56;5.85;;;2.05;;
77872;SDS011;67068;52.116;4.440;2023-09-18T10:59:22;6.28;;;2.00;;
77872;SDS011;67068;52.116;4.440;2023-09-18T11:01:48;4.50;;;1.83;;
77872;SDS011;67068;52.116;4.440;2023-09-18T11:04:13;5.68;;;2.00;;
77872;SDS011;67068;52.116;4.440;2023-09-18T11:09:20;5.50;;;1.83;;
77872;SDS011;67068;52.116;4.440;2023-09-18T11:11:45;5.40;;;1.80;;
77872;SDS011;67068;52.116;4.440;2023-09-18T11:14:13;4.68;;;1.83;;
77872;SDS011;67068;52.116;4.440;2023-09-18T11:16:40;5.78;;;2.35;;
77872;SDS011;67068;52.116;4.440;2023-09-18T11:21:31;5.43;;;1.93;;
77872;SDS011;67068;52.116;4.440;2023-09-18T11:24:03;6.03;;;2.13;;
77872;SDS011;67068;52.116;4.440;2023-09-18T11:26:29;5.35;;;2.15;;
77872;SDS011;67068;52.116;4.440;2023-09-18T11:28:56;5.35;;;1.85;;
77872;SDS011;67068;52.116;4.440;2023-09-18T11:31:21;6.20;;;1.77;;
77872;SDS011;67068;52.116;4.440;2023-09-18T11:34:15;4.88;;;1.70;;
77872;SDS011;67068;52.116;4.440;2023-09-18T11:36:40;6.95;;;1.90;;
77872;SDS011;67068;52.116;4.440;2023-09-18T11:39:06;7.55;;;2.03;;
77872;SDS011;67068;52.116;4.440;2023-09-18T11:41:32;5.85;;;2.03;;
77872;SDS011;67068;52.116;4.440;2023-09-18T11:46:35;5.13;;;1.80;;
77872;SDS011;67068;52.116;4.440;2023-09-18T11:49:02;5.45;;;1.92;;
77872;SDS011;67068;52.116;4.440;2023-09-18T11:51:30;6.45;;;1.95;;
77872;SDS011;67068;52.116;4.440;2023-09-18T11:53:56;4.50;;;1.70;;
77872;SDS011;67068;52.116;4.440;2023-09-18T11:56:22;5.22;;;1.77;;
77872;SDS011;67068;52.116;4.440;2023-09-18T11:58:48;5.20;;;1.77;;
77872;SDS011;67068;52.116;4.440;2023-09-18T12:01:14;5.70;;;1.80;;
77872;SDS011;67068;52.116;4.440;2023-09-18T12:03:40;5.28;;;1.90;;
77872;SDS011;67068;52.116;4.440;2023-09-18T12:06:05;4.25;;;1.52;;
77872;SDS011;67068;52.116;4.440;2023-09-18T12:08:31;6.13;;;1.70;;
77872;SDS011;67068;52.116;4.440;2023-09-18T12:10:56;6.53;;;2.08;;
77872;SDS011;67068;52.116;4.440;2023-09-18T12:13:24;5.45;;;2.00;;
77872;SDS011;67068;52.116;4.440;2023-09-18T12:15:49;5.05;;;1.90;;
77872;SDS011;67068;52.116;4.440;2023-09-18T12:18:15;5.05;;;1.90;;
77872;SDS011;67068;52.116;4.440;2023-09-18T12:20:47;5.18;;;1.88;;
77872;SDS011;67068;52.116;4.440;2023-09-18T12:23:12;7.95;;;2.30;;
77872;SDS011;67068;52.116;4.440;2023-09-18T12:25:38;4.57;;;1.63;;
77872;SDS011;67068;52.116;4.440;2023-09-18T12:28:03;5.43;;;1.95;;
77872;SDS011;67068;52.116;4.440;2023-09-18T12:30:31;4.95;;;2.00;;
77872;SDS011;67068;52.116;4.440;2023-09-18T12:32:57;5.75;;;1.85;;
77872;SDS011;67068;52.116;4.440;2023-09-18T12:35:23;5.28;;;1.80;;
77872;SDS011;67068;52.116;4.440;2023-09-18T12:37:50;5.30;;;1.70;;
77872;SDS011;67068;52.116;4.440;2023-09-18T12:42:47;5.10;;;1.67;;
77872;SDS011;67068;52.116;4.440;2023-09-18T12:45:12;6.22;;;2.05;;
77872;SDS011;67068;52.116;4.440;2023-09-18T12:47:38;5.07;;;1.75;;
77872;SDS011;67068;52.116;4.440;2023-09-18T12:50:04;5.57;;;1.88;;
77872;SDS011;67068;52.116;4.440;2023-09-18T12:52:31;5.25;;;2.00;;
77872;SDS011;67068;52.116;4.440;2023-09-18T12:54:57;5.28;;;1.60;;
77872;SDS011;67068;52.116;4.440;2023-09-18T12:57:24;5.78;;;2.05;;
77872;SDS011;67068;52.116;4.440;2023-09-18T12:59:49;5.90;;;1.70;;
77872;SDS011;67068;52.116;4.440;2023-09-18T13:02:19;6.18;;;2.20;;
77872;SDS011;67068;52.116;4.440;2023-09-18T13:04:51;5.13;;;1.80;;
77872;SDS011;67068;52.116;4.440;2023-09-18T13:07:16;5.38;;;1.83;;
77872;SDS011;67068;52.116;4.440;2023-09-18T13:09:42;4.47;;;1.60;;
77872;SDS011;67068;52.116;4.440;2023-09-18T13:12:08;5.25;;;2.00;;
77872;SDS011;67068;52.116;4.440;2023-09-18T13:17:17;5.85;;;1.90;;
77872;SDS011;67068;52.116;4.440;2023-09-18T13:19:43;5.90;;;1.80;;
77872;SDS011;67068;52.116;4.440;2023-09-18T13:22:08;5.27;;;1.90;;
77872;SDS011;67068;52.116;4.440;2023-09-18T13:24:33;5.83;;;1.80;;
77872;SDS011;67068;52.116;4.440;2023-09-18T13:26:59;6.30;;;2.00;;
77872;SDS011;67068;52.116;4.440;2023-09-18T13:29:24;6.00;;;2.00;;
77872;SDS011;67068;52.116;4.440;2023-09-18T13:31:50;6.82;;;2.08;;
77872;SDS011;67068;52.116;4.440;2023-09-18T13:34:16;5.20;;;1.83;;
77872;SDS011;67068;52.116;4.440;2023-09-18T13:36:44;5.40;;;1.70;;
77872;SDS011;67068;52.116;4.440;2023-09-18T13:39:10;5.57;;;1.92;;
77872;SDS011;67068;52.116;4.440;2023-09-18T13:41:36;5.93;;;1.92;;
77872;SDS011;67068;52.116;4.440;2023-09-18T13:44:02;5.75;;;1.70;;
77872;SDS011;67068;52.116;4.440;2023-09-18T13:46:27;5.38;;;1.98;;
77872;SDS011;67068;52.116;4.440;2023-09-18T13:48:52;6.03;;;2.05;;
77872;SDS011;67068;52.116;4.440;2023-09-18T13:51:17;5.37;;;1.93;;
77872;SDS011;67068;52.116;4.440;2023-09-18T13:53:43;6.13;;;2.20;;
77872;SDS011;67068;52.116;4.440;2023-09-18T13:56:08;5.63;;;2.03;;
77872;SDS011;67068;52.116;4.440;2023-09-18T13:58:33;7.93;;;2.07;;
77872;SDS011;67068;52.116;4.440;2023-09-18T14:01:00;5.28;;;1.95;;
77872;SDS011;67068;52.116;4.440;2023-09-18T14:03:25;6.47;;;2.07;;
77872;SDS011;67068;52.116;4.440;2023-09-18T14:05:51;5.03;;;1.90;;
77872;SDS011;67068;52.116;4.440;2023-09-18T14:08:16;6.60;;;2.20;;
77872;SDS011;67068;52.116;4.440;2023-09-18T14:10:42;6.35;;;2.55;;
77872;SDS011;67068;52.116;4.440;2023-09-18T14:13:08;6.55;;;2.20;;
77872;SDS011;67068;52.116;4.440;2023-09-18T14:15:33;6.93;;;2.10;;
77872;SDS011;67068;52.116;4.440;2023-09-18T14:17:58;5.77;;;2.07;;
77872;SDS011;67068;52.116;4.440;2023-09-18T14:20:23;6.63;;;2.60;;
77872;SDS011;67068;52.116;4.440;2023-09-18T14:22:49;7.43;;;2.53;;
77872;SDS011;67068;52.116;4.440;2023-09-18T14:25:15;4.93;;;1.80;;
77872;SDS011;67068;52.116;4.440;2023-09-18T14:27:40;6.15;;;2.00;;
77872;SDS011;67068;52.116;4.440;2023-09-18T14:30:06;5.30;;;1.67;;
77872;SDS011;67068;52.116;4.440;2023-09-18T14:32:32;4.95;;;2.00;;
77872;SDS011;67068;52.116;4.440;2023-09-18T14:34:58;4.88;;;1.73;;
77872;SDS011;67068;52.116;4.440;2023-09-18T14:37:26;5.78;;;1.67;;
77872;SDS011;67068;52.116;4.440;2023-09-18T14:39:51;5.53;;;2.23;;
77872;SDS011;67068;52.116;4.440;2023-09-18T14:42:17;7.33;;;2.03;;
77872;SDS011;67068;52.116;4.440;2023-09-18T14:44:42;6.90;;;2.10;;
77872;SDS011;67068;52.116;4.440;2023-09-18T14:47:10;6.05;;;2.00;;
77872;SDS011;67068;52.116;4.440;2023-09-18T14:49:35;4.47;;;1.80;;
77872;SDS011;67068;52.116;4.440;2023-09-18T14:52:02;5.68;;;1.90;;
77872;SDS011;67068;52.116;4.440;2023-09-18T14:54:28;5.35;;;1.90;;
77872;SDS011;67068;52.116;4.440;2023-09-18T14:56:53;5.13;;;1.70;;
77872;SDS011;67068;52.116;4.440;2023-09-18T14:59:18;4.97;;;1.77;;
77872;SDS011;67068;52.116;4.440;2023-09-18T15:01:44;6.77;;;1.90;;
77872;SDS011;67068;52.116;4.440;2023-09-18T15:04:09;5.55;;;1.90;;
77872;SDS011;67068;52.116;4.440;2023-09-18T15:06:35;5.10;;;1.77;;
77872;SDS011;67068;52.116;4.440;2023-09-18T15:09:00;4.97;;;1.50;;